Time;durP1;ratioP1;P1;durP2;ratioP2;P2;SDS_P1;SDS_P2;PMS_P1;PMS_P2;Temp;Humidity;BMP_temperature;BMP_pressure;BME280_temperature;BME280_humidity;BME280_pressure;Samples;Min_cycle;Max_cycle;Signal;HPM_P1;HPM_P2
2021/06/29 00:01:49;;;;;;;9.50;4.88;;;;;;;;;;5057270;28;20059;-75
2021/06/29 00:04:33;;;;;;;9.30;4.60;;;;;;;;;;5060423;28;20438;-76
2021/06/29 00:07:18;;;;;;;6.50;4.30;;;;;;;;;;5063601;28;20102;-75
2021/06/29 00:10:04;;;;;;;6.18;4.03;;;;;;;;;;5063686;28;20039;-75
2021/06/29 00:12:48;;;;;;;8.43;4.60;;;;;;;;;;5063369;28;20074;-76
2021/06/29 00:15:33;;;;;;;7.65;4.88;;;;;;;;;;5069407;28;20055;-75
2021/06/29 00:18:18;;;;;;;9.25;4.82;;;;;;;;;;5064220;28;20086;-75
2021/06/29 00:21:03;;;;;;;8.48;4.72;;;;;;;;;;5067946;28;20506;-75
2021/06/29 00:23:48;;;;;;;9.68;5.10;;;;;;;;;;5065520;28;20035;-75
2021/06/29 00:26:32;;;;;;;8.90;5.05;;;;;;;;;;5064962;28;20042;-75
2021/06/29 00:29:17;;;;;;;9.52;5.20;;;;;;;;;;5063525;28;20048;-76
2021/06/29 00:32:03;;;;;;;7.60;4.70;;;;;;;;;;5057401;28;20093;-75
2021/06/29 00:34:48;;;;;;;8.65;4.43;;;;;;;;;;5060290;28;20114;-76
2021/06/29 00:37:33;;;;;;;7.35;4.55;;;;;;;;;;5042161;28;20089;-75
2021/06/29 00:40:18;;;;;;;6.07;4.50;;;;;;;;;;5061747;28;20529;-77
2021/06/29 00:43:03;;;;;;;5.88;4.47;;;;;;;;;;5041795;28;20043;-76
2021/06/29 00:45:48;;;;;;;7.65;5.10;;;;;;;;;;5062769;28;20055;-76
2021/06/29 00:48:32;;;;;;;9.20;4.75;;;;;;;;;;5046833;28;20506;-76
2021/06/29 00:51:18;;;;;;;9.02;5.13;;;;;;;;;;5057249;28;20090;-76
2021/06/29 00:54:02;;;;;;;8.18;5.03;;;;;;;;;;5074511;28;20078;-76
2021/06/29 00:56:47;;;;;;;6.22;4.53;;;;;;;;;;5062642;28;20039;-76
2021/06/29 00:59:32;;;;;;;7.65;4.80;;;;;;;;;;5068181;28;20108;-77
2021/06/29 01:02:16;;;;;;;7.13;4.85;;;;;;;;;;5065686;28;20147;-76
2021/06/29 01:05:03;;;;;;;8.93;5.03;;;;;;;;;;5077088;28;20102;-76
2021/06/29 01:07:47;;;;;;;6.55;5.07;;;;;;;;;;5069433;28;20098;-76
2021/06/29 01:10:32;;;;;;;8.65;4.95;;;;;;;;;;5080223;28;20245;-76
2021/06/29 01:13:32;;;;;;;6.20;4.70;;;;;;;;;;5078297;28;20847;-76
2021/06/29 01:16:16;;;;;;;7.50;4.68;;;;;;;;;;5079059;28;20047;-76
2021/06/29 01:19:01;;;;;;;6.97;5.18;;;;;;;;;;5082078;28;20035;-77
2021/06/29 01:21:49;;;;;;;8.00;4.93;;;;;;;;;;5056294;28;20380;-76
2021/06/29 01:24:34;;;;;;;7.97;5.05;;;;;;;;;;5070580;28;20115;-76
2021/06/29 01:32:49;;;;;;;7.82;4.90;;;;;;;;;;5066273;28;20132;-76
2021/06/29 01:35:34;;;;;;;7.80;5.20;;;;;;;;;;5077115;28;20047;-76
2021/06/29 01:38:22;;;;;;;7.88;4.85;;;;;;;;;;5074974;28;20082;-76
2021/06/29 01:41:07;;;;;;;5.97;4.60;;;;;;;;;;5067979;28;20401;-76
2021/06/29 01:43:55;;;;;;;7.53;5.25;;;;;;;;;;5074250;28;20083;-76
2021/06/29 01:46:42;;;;;;;7.03;4.70;;;;;;;;;;5067148;28;20112;-76
2021/06/29 01:49:27;;;;;;;7.88;5.07;;;;;;;;;;5045230;28;20110;-76
2021/06/29 01:52:12;;;;;;;6.72;5.10;;;;;;;;;;5077458;28;20093;-76
2021/06/29 01:54:56;;;;;;;6.78;5.20;;;;;;;;;;5055562;28;20058;-76
2021/06/29 01:57:44;;;;;;;8.68;5.28;;;;;;;;;;5085904;28;20039;-76
2021/06/29 02:00:29;;;;;;;8.90;5.82;;;;;;;;;;5075424;28;20044;-76
2021/06/29 02:03:13;;;;;;;8.25;5.55;;;;;;;;;;5070789;28;20039;-76
2021/06/29 02:05:58;;;;;;;6.60;4.93;;;;;;;;;;5084393;28;20074;-76
2021/06/29 02:08:42;;;;;;;7.30;5.60;;;;;;;;;;5068827;28;20039;-76
2021/06/29 02:11:27;;;;;;;6.47;5.30;;;;;;;;;;5078424;28;20612;-76
2021/06/29 02:14:12;;;;;;;7.05;5.28;;;;;;;;;;5073650;28;20119;-76
2021/06/29 02:16:56;;;;;;;8.20;5.38;;;;;;;;;;5091641;28;20038;-76
2021/06/29 02:19:41;;;;;;;7.57;5.50;;;;;;;;;;5081146;28;20101;-76
2021/06/29 02:22:25;;;;;;;7.65;5.28;;;;;;;;;;5073609;28;20027;-76
2021/06/29 02:25:11;;;;;;;8.65;6.20;;;;;;;;;;5072430;28;20055;-76
2021/06/29 02:27:55;;;;;;;7.05;5.63;;;;;;;;;;5091102;28;20486;-76
2021/06/29 02:30:42;;;;;;;7.32;5.82;;;;;;;;;;5081291;28;20062;-76
2021/06/29 02:33:27;;;;;;;8.10;5.32;;;;;;;;;;5075331;28;20108;-76
2021/06/29 02:36:12;;;;;;;7.82;5.57;;;;;;;;;;5062676;28;20043;-76
2021/06/29 02:38:56;;;;;;;9.15;5.78;;;;;;;;;;5065669;28;20683;-76
2021/06/29 02:41:41;;;;;;;8.02;5.75;;;;;;;;;;5080837;28;20051;-76
2021/06/29 02:44:25;;;;;;;7.70;5.75;;;;;;;;;;5051242;28;20043;-76
2021/06/29 02:47:11;;;;;;;8.15;5.78;;;;;;;;;;5076247;28;20074;-76
2021/06/29 02:49:56;;;;;;;8.25;5.40;;;;;;;;;;5061725;28;20146;-76
2021/06/29 02:52:41;;;;;;;8.10;6.07;;;;;;;;;;5077979;28;20071;-76
2021/06/29 02:55:25;;;;;;;8.23;5.90;;;;;;;;;;5083321;28;20463;-76
2021/06/29 02:58:10;;;;;;;7.75;5.88;;;;;;;;;;5088173;28;20043;-76
2021/06/29 03:00:54;;;;;;;7.95;5.40;;;;;;;;;;5062075;28;20043;-75
2021/06/29 03:03:39;;;;;;;8.45;5.85;;;;;;;;;;5072187;28;20072;-76
2021/06/29 03:06:23;;;;;;;7.35;5.88;;;;;;;;;;5083621;28;20085;-76
2021/06/29 03:09:08;;;;;;;10.20;5.95;;;;;;;;;;5091247;28;20105;-76
2021/06/29 03:11:52;;;;;;;9.02;5.70;;;;;;;;;;5074777;28;20043;-75
2021/06/29 03:14:39;;;;;;;7.68;5.88;;;;;;;;;;5048589;28;20048;-76
2021/06/29 03:17:24;;;;;;;8.55;5.90;;;;;;;;;;5060127;28;20644;-76
2021/06/29 03:20:09;;;;;;;8.73;6.03;;;;;;;;;;5077508;28;20569;-76
2021/06/29 03:22:54;;;;;;;7.60;6.18;;;;;;;;;;5078116;28;20039;-76
2021/06/29 03:25:39;;;;;;;9.05;6.72;;;;;;;;;;5080699;28;20051;-76
2021/06/29 03:28:23;;;;;;;6.13;5.32;;;;;;;;;;5075054;28;20046;-76
2021/06/29 03:31:08;;;;;;;6.82;5.53;;;;;;;;;;5080019;28;20093;-76
2021/06/29 03:33:53;;;;;;;10.43;6.55;;;;;;;;;;5074222;28;20054;-75
2021/06/29 03:36:37;;;;;;;7.25;6.03;;;;;;;;;;5068575;28;20403;-76
2021/06/29 03:39:22;;;;;;;9.68;6.15;;;;;;;;;;5077306;28;20067;-76
2021/06/29 03:42:07;;;;;;;8.63;5.82;;;;;;;;;;5068550;28;20047;-76
2021/06/29 03:44:51;;;;;;;8.70;6.18;;;;;;;;;;5069952;28;20043;-76
2021/06/29 03:47:36;;;;;;;7.15;5.50;;;;;;;;;;5077192;28;20096;-76
2021/06/29 03:50:20;;;;;;;6.95;5.63;;;;;;;;;;5088556;28;20075;-77
2021/06/29 03:53:05;;;;;;;9.00;5.78;;;;;;;;;;5068779;28;20039;-76
2021/06/29 03:55:49;;;;;;;10.00;5.80;;;;;;;;;;5086150;28;20055;-76
2021/06/29 03:58:34;;;;;;;8.38;6.30;;;;;;;;;;5068047;28;20047;-76
2021/06/29 04:01:19;;;;;;;7.38;5.78;;;;;;;;;;5070618;28;20054;-76
2021/06/29 04:04:04;;;;;;;7.32;5.90;;;;;;;;;;5054629;28;20128;-76
2021/06/29 04:06:49;;;;;;;7.68;5.93;;;;;;;;;;5084990;28;20085;-76
2021/06/29 04:09:33;;;;;;;8.73;5.82;;;;;;;;;;5068908;28;20110;-75
2021/06/29 04:12:18;;;;;;;6.80;5.50;;;;;;;;;;5056005;28;20090;-76
2021/06/29 04:15:04;;;;;;;8.90;6.10;;;;;;;;;;5051827;28;20488;-76
2021/06/29 04:17:49;;;;;;;8.07;6.05;;;;;;;;;;5066167;28;20568;-76
2021/06/29 04:20:33;;;;;;;8.32;6.20;;;;;;;;;;5064411;28;20044;-76
2021/06/29 04:23:18;;;;;;;11.07;6.00;;;;;;;;;;5078155;28;20039;-76
2021/06/29 04:26:03;;;;;;;8.45;5.70;;;;;;;;;;5071218;28;20100;-76
2021/06/29 04:28:47;;;;;;;8.13;6.05;;;;;;;;;;5079071;28;20038;-75
2021/06/29 04:31:32;;;;;;;8.32;5.78;;;;;;;;;;5078309;28;20036;-76
2021/06/29 04:34:17;;;;;;;9.43;5.63;;;;;;;;;;5072863;28;20051;-76
2021/06/29 04:37:03;;;;;;;10.00;6.10;;;;;;;;;;5087940;28;20051;-76
2021/06/29 04:39:47;;;;;;;9.02;5.82;;;;;;;;;;5062723;28;20047;-76
2021/06/29 04:42:32;;;;;;;9.15;6.13;;;;;;;;;;5078360;28;20734;-76
2021/06/29 04:45:19;;;;;;;7.95;6.20;;;;;;;;;;5073347;28;20047;-76
2021/06/29 04:48:04;;;;;;;9.05;5.78;;;;;;;;;;5085319;28;20092;-76
2021/06/29 04:50:49;;;;;;;8.70;5.50;;;;;;;;;;5078996;28;20180;-76
2021/06/29 04:53:34;;;;;;;8.48;5.78;;;;;;;;;;5083236;28;20061;-76
2021/06/29 04:56:18;;;;;;;10.02;6.25;;;;;;;;;;5080280;28;20047;-76
2021/06/29 04:59:03;;;;;;;11.85;5.82;;;;;;;;;;5082969;28;20049;-76
2021/06/29 05:01:47;;;;;;;8.45;5.50;;;;;;;;;;5074903;28;20063;-77
2021/06/29 05:04:31;;;;;;;8.27;5.80;;;;;;;;;;5082247;28;20043;-76
2021/06/29 05:07:16;;;;;;;7.60;5.60;;;;;;;;;;5080758;28;20226;-76
2021/06/29 05:10:00;;;;;;;9.85;6.00;;;;;;;;;;5073231;28;20115;-76
2021/06/29 05:12:48;;;;;;;9.48;6.10;;;;;;;;;;5071037;28;20051;-76
2021/06/29 05:15:32;;;;;;;9.23;5.88;;;;;;;;;;5041485;28;20050;-76
2021/06/29 05:18:17;;;;;;;8.18;5.80;;;;;;;;;;5058970;28;20541;-76
2021/06/29 05:21:01;;;;;;;8.10;5.85;;;;;;;;;;5070289;28;20043;-76
2021/06/29 05:23:46;;;;;;;9.10;5.85;;;;;;;;;;5073210;28;20435;-76
2021/06/29 05:26:31;;;;;;;9.13;5.47;;;;;;;;;;5060052;28;20052;-76
2021/06/29 05:29:15;;;;;;;9.15;5.90;;;;;;;;;;5059020;28;20493;-76
2021/06/29 05:32:00;;;;;;;7.60;6.10;;;;;;;;;;5060508;28;20079;-76
2021/06/29 05:34:44;;;;;;;9.40;6.25;;;;;;;;;;5064506;28;20203;-76
2021/06/29 05:37:29;;;;;;;8.13;5.60;;;;;;;;;;5063428;28;20071;-76
2021/06/29 05:40:13;;;;;;;9.48;5.95;;;;;;;;;;5064620;28;20767;-77
2021/06/29 05:42:58;;;;;;;9.98;5.97;;;;;;;;;;5054218;28;20055;-77
2021/06/29 05:45:43;;;;;;;9.88;5.70;;;;;;;;;;5056005;28;20046;-76
2021/06/29 05:48:31;;;;;;;8.52;5.93;;;;;;;;;;5058018;28;20407;-76
2021/06/29 05:51:15;;;;;;;8.52;6.10;;;;;;;;;;5073101;28;20146;-77
2021/06/29 05:54:00;;;;;;;8.82;5.88;;;;;;;;;;5080452;28;20509;-76
2021/06/29 05:56:45;;;;;;;8.18;6.13;;;;;;;;;;5066326;28;20097;-76
2021/06/29 05:59:30;;;;;;;8.10;5.80;;;;;;;;;;5065982;28;20047;-76
2021/06/29 06:02:14;;;;;;;7.85;5.80;;;;;;;;;;5082556;28;20082;-76
2021/06/29 06:04:59;;;;;;;8.50;5.90;;;;;;;;;;5051889;28;20613;-76
2021/06/29 06:07:44;;;;;;;8.10;5.82;;;;;;;;;;5063731;28;20048;-77
2021/06/29 06:10:29;;;;;;;8.02;5.82;;;;;;;;;;5073856;28;20074;-76
2021/06/29 06:13:13;;;;;;;9.70;5.85;;;;;;;;;;5050446;28;20043;-76
2021/06/29 06:15:58;;;;;;;8.40;5.88;;;;;;;;;;5061775;28;20134;-76
2021/06/29 06:18:43;;;;;;;7.78;5.68;;;;;;;;;;5063646;28;20506;-75
2021/06/29 06:21:28;;;;;;;7.15;5.50;;;;;;;;;;5041910;28;20043;-77
2021/06/29 06:24:12;;;;;;;8.77;5.50;;;;;;;;;;5047206;28;20665;-76
2021/06/29 06:26:57;;;;;;;9.77;5.88;;;;;;;;;;5058484;28;20111;-76
2021/06/29 06:29:41;;;;;;;8.43;5.80;;;;;;;;;;5044810;28;20128;-76
2021/06/29 06:32:26;;;;;;;9.35;5.35;;;;;;;;;;5062443;28;20074;-76
2021/06/29 06:35:11;;;;;;;7.28;5.65;;;;;;;;;;5052459;28;20145;-76
2021/06/29 06:37:55;;;;;;;7.72;5.68;;;;;;;;;;5047563;28;20079;-76
2021/06/29 06:40:40;;;;;;;7.38;5.63;;;;;;;;;;5053601;28;20573;-76
2021/06/29 06:43:24;;;;;;;8.05;5.68;;;;;;;;;;5062034;28;20040;-76
2021/06/29 06:46:09;;;;;;;8.48;5.82;;;;;;;;;;5061588;28;20067;-76
2021/06/29 06:48:54;;;;;;;9.43;5.70;;;;;;;;;;5048344;28;20039;-76
2021/06/29 06:51:38;;;;;;;9.05;5.63;;;;;;;;;;5061940;28;20510;-76
2021/06/29 06:54:23;;;;;;;8.38;5.97;;;;;;;;;;5045509;28;20052;-76
2021/06/29 06:57:08;;;;;;;9.35;5.63;;;;;;;;;;5043587;28;20152;-76
2021/06/29 06:59:53;;;;;;;7.43;5.57;;;;;;;;;;5073126;28;20042;-75
2021/06/29 07:02:37;;;;;;;7.47;5.40;;;;;;;;;;5067073;28;20036;-76
2021/06/29 07:05:22;;;;;;;6.90;5.30;;;;;;;;;;5072202;28;20031;-76
2021/06/29 07:08:07;;;;;;;7.53;5.40;;;;;;;;;;5084811;28;20039;-76
2021/06/29 07:10:53;;;;;;;9.02;5.97;;;;;;;;;;5073617;28;20168;-76
2021/06/29 07:13:38;;;;;;;6.30;5.30;;;;;;;;;;5070972;28;20075;-76
2021/06/29 07:16:23;;;;;;;8.43;5.43;;;;;;;;;;5071652;28;20074;-76
2021/06/29 07:19:07;;;;;;;8.40;5.43;;;;;;;;;;5068098;28;20896;-76
2021/06/29 07:21:52;;;;;;;7.68;5.25;;;;;;;;;;5067408;28;20048;-75
2021/06/29 07:24:36;;;;;;;5.90;4.68;;;;;;;;;;5068913;28;20043;-75
2021/06/29 07:27:21;;;;;;;7.00;5.30;;;;;;;;;;5070422;28;20085;-76
2021/06/29 07:30:07;;;;;;;7.28;5.75;;;;;;;;;;5080298;28;20126;-76
2021/06/29 07:32:54;;;;;;;9.23;5.68;;;;;;;;;;5068092;28;20043;-75
2021/06/29 07:35:38;;;;;;;7.72;5.30;;;;;;;;;;5079181;28;20059;-76
2021/06/29 07:38:23;;;;;;;8.02;5.05;;;;;;;;;;5069470;28;20414;-77
2021/06/29 07:41:07;;;;;;;9.52;5.70;;;;;;;;;;5069027;28;20069;-76
2021/06/29 07:43:53;;;;;;;7.57;5.18;;;;;;;;;;5063072;28;20048;-76
2021/06/29 07:46:37;;;;;;;6.82;5.10;;;;;;;;;;5072686;28;20043;-76
2021/06/29 07:49:21;;;;;;;7.88;5.53;;;;;;;;;;5054142;28;20154;-77
2021/06/29 07:52:06;;;;;;;9.18;5.40;;;;;;;;;;5065059;28;20040;-77
2021/06/29 07:54:51;;;;;;;8.75;5.60;;;;;;;;;;5072141;28;20081;-77
2021/06/29 07:57:35;;;;;;;8.98;5.68;;;;;;;;;;5066488;28;20048;-77
2021/06/29 08:00:20;;;;;;;9.73;5.70;;;;;;;;;;5072959;28;20047;-77
2021/06/29 08:03:05;;;;;;;7.55;5.15;;;;;;;;;;5052099;28;20040;-77
2021/06/29 08:05:50;;;;;;;8.10;5.25;;;;;;;;;;5044953;28;20455;-77
2021/06/29 08:08:35;;;;;;;7.38;5.45;;;;;;;;;;5051683;28;20105;-76
2021/06/29 08:11:20;;;;;;;7.05;5.05;;;;;;;;;;5075520;28;20035;-77
2021/06/29 08:14:05;;;;;;;6.25;5.05;;;;;;;;;;5068988;28;20055;-77
2021/06/29 08:16:49;;;;;;;7.70;5.10;;;;;;;;;;5070391;28;20126;-76
2021/06/29 08:19:34;;;;;;;8.07;5.22;;;;;;;;;;5055372;28;20669;-78
2021/06/29 08:22:18;;;;;;;6.80;5.38;;;;;;;;;;5064236;28;20082;-77
2021/06/29 08:25:04;;;;;;;7.25;5.47;;;;;;;;;;5064288;28;20111;-76
2021/06/29 08:27:48;;;;;;;7.18;5.03;;;;;;;;;;5063399;28;20040;-76
2021/06/29 08:30:33;;;;;;;7.65;5.43;;;;;;;;;;5064300;28;20506;-76
2021/06/29 08:33:21;;;;;;;8.98;5.60;;;;;;;;;;5064929;28;20039;-77
2021/06/29 08:36:06;;;;;;;6.70;5.13;;;;;;;;;;5062258;28;20043;-76
2021/06/29 08:38:51;;;;;;;8.13;5.32;;;;;;;;;;5054470;28;20067;-78
2021/06/29 08:41:37;;;;;;;6.65;5.10;;;;;;;;;;5062705;28;20182;-77
2021/06/29 08:44:21;;;;;;;7.65;5.00;;;;;;;;;;5045497;28;20765;-77
2021/06/29 08:47:10;;;;;;;6.85;5.00;;;;;;;;;;5062686;28;20078;-78
2021/06/29 08:49:55;;;;;;;8.40;5.63;;;;;;;;;;5042196;28;20078;-77
2021/06/29 08:52:39;;;;;;;6.65;4.95;;;;;;;;;;5045041;28;20122;-77
2021/06/29 08:55:27;;;;;;;5.75;4.93;;;;;;;;;;5058952;28;20055;-77
2021/06/29 08:58:15;;;;;;;8.95;5.20;;;;;;;;;;5064785;28;20046;-78
2021/06/29 09:00:59;;;;;;;7.38;5.03;;;;;;;;;;5045579;28;20098;-78
2021/06/29 09:03:44;;;;;;;7.55;5.10;;;;;;;;;;5066252;28;20038;-76
2021/06/29 09:06:39;;;;;;;9.50;5.40;;;;;;;;;;5076172;28;20594;-79
2021/06/29 09:09:28;;;;;;;7.13;5.25;;;;;;;;;;5068093;28;20096;-77
2021/06/29 09:12:13;;;;;;;7.57;5.32;;;;;;;;;;5070090;28;20678;-79
2021/06/29 09:14:58;;;;;;;6.90;5.05;;;;;;;;;;5075315;28;20102;-77
2021/06/29 09:17:43;;;;;;;8.40;4.75;;;;;;;;;;5058273;28;20505;-78
2021/06/29 09:20:28;;;;;;;6.68;5.18;;;;;;;;;;5057246;28;20187;-77
2021/06/29 09:23:14;;;;;;;7.90;5.20;;;;;;;;;;5056472;28;20059;-78
2021/06/29 09:25:59;;;;;;;10.55;5.40;;;;;;;;;;5054513;28;20504;-77
2021/06/29 09:28:46;;;;;;;8.98;4.53;;;;;;;;;;5056711;28;20081;-78
2021/06/29 09:31:32;;;;;;;7.05;5.45;;;;;;;;;;5045632;28;20780;-78
2021/06/29 09:34:17;;;;;;;8.82;5.05;;;;;;;;;;5057973;28;20572;-77
2021/06/29 09:37:01;;;;;;;7.68;4.70;;;;;;;;;;5062844;28;20039;-78
2021/06/29 09:39:46;;;;;;;6.38;4.45;;;;;;;;;;5062553;28;20128;-78
2021/06/29 09:42:31;;;;;;;8.30;5.40;;;;;;;;;;5046864;28;20054;-78
2021/06/29 09:45:34;;;;;;;9.27;4.70;;;;;;;;;;5050572;28;20062;-78
2021/06/29 09:48:29;;;;;;;7.18;5.20;;;;;;;;;;5050232;28;20040;-77
2021/06/29 09:51:17;;;;;;;6.93;4.95;;;;;;;;;;5044757;28;20410;-77
2021/06/29 09:54:03;;;;;;;8.43;4.82;;;;;;;;;;5056593;28;20052;-78
2021/06/29 09:56:48;;;;;;;7.47;4.82;;;;;;;;;;5058921;28;20209;-78
2021/06/29 09:59:33;;;;;;;5.20;4.63;;;;;;;;;;5043583;28;20047;-78
2021/06/29 10:02:29;;;;;;;7.38;4.80;;;;;;;;;;5058379;28;20039;-78
2021/06/29 10:05:21;;;;;;;9.55;5.22;;;;;;;;;;5044764;28;20054;-78
2021/06/29 10:08:06;;;;;;;7.53;4.75;;;;;;;;;;5055100;28;20431;-77
2021/06/29 10:10:57;;;;;;;6.70;5.05;;;;;;;;;;5058554;28;20465;-78
2021/06/29 10:13:45;;;;;;;8.13;4.93;;;;;;;;;;5055295;28;20116;-77
2021/06/29 10:16:43;;;;;;;6.97;4.72;;;;;;;;;;5059666;28;20052;-78
2021/06/29 10:22:18;;;;;;;5.72;4.90;;;;;;;;;;5056758;28;20043;-78
2021/06/29 10:25:03;;;;;;;7.15;4.82;;;;;;;;;;5059737;28;20591;-77
2021/06/29 10:27:47;;;;;;;6.97;5.25;;;;;;;;;;5055992;28;20046;-78
2021/06/29 10:30:32;;;;;;;6.18;4.80;;;;;;;;;;5040532;28;20109;-77
2021/06/29 10:33:16;;;;;;;6.40;4.80;;;;;;;;;;5037454;28;20085;-77
2021/06/29 10:36:01;;;;;;;6.80;4.70;;;;;;;;;;5061615;28;20164;-79
2021/06/29 10:38:46;;;;;;;9.10;5.00;;;;;;;;;;5058164;28;20044;-78
2021/06/29 10:41:38;;;;;;;5.68;4.53;;;;;;;;;;5049638;28;20181;-78
2021/06/29 10:44:23;;;;;;;5.28;4.78;;;;;;;;;;5045577;28;20040;-77
2021/06/29 10:47:20;;;;;;;7.65;4.70;;;;;;;;;;5061318;28;20043;-79
2021/06/29 10:50:07;;;;;;;5.97;4.53;;;;;;;;;;5066764;28;20094;-79
2021/06/29 10:52:52;;;;;;;5.80;4.45;;;;;;;;;;5065895;28;20431;-78
2021/06/29 10:55:36;;;;;;;5.90;4.95;;;;;;;;;;5071021;28;20522;-77
2021/06/29 10:58:37;;;;;;;6.18;4.90;;;;;;;;;;5061258;28;20174;-78
2021/06/29 11:01:26;;;;;;;5.70;4.50;;;;;;;;;;5045319;28;20043;-78
2021/06/29 11:04:11;;;;;;;6.15;5.10;;;;;;;;;;5057027;28;20092;-79
2021/06/29 11:06:55;;;;;;;5.40;4.57;;;;;;;;;;5043404;28;20075;-78
2021/06/29 11:09:53;;;;;;;6.70;5.07;;;;;;;;;;5033370;28;20091;-78
2021/06/29 11:12:42;;;;;;;5.75;4.25;;;;;;;;;;5041889;28;20048;-78
2021/06/29 11:15:40;;;;;;;6.10;4.78;;;;;;;;;;5047099;28;20081;-78
2021/06/29 11:18:34;;;;;;;6.25;4.65;;;;;;;;;;5065064;28;20858;-78
2021/06/29 11:21:19;;;;;;;6.78;5.05;;;;;;;;;;5060579;28;20040;-78
2021/06/29 11:24:22;;;;;;;5.50;4.55;;;;;;;;;;5072368;28;20107;-78
2021/06/29 11:27:07;;;;;;;7.07;5.32;;;;;;;;;;5066135;28;20101;-78
2021/06/29 11:29:52;;;;;;;8.98;4.82;;;;;;;;;;5061041;28;20581;-80
2021/06/29 11:32:36;;;;;;;6.00;5.40;;;;;;;;;;5054792;28;20048;-78
2021/06/29 11:35:37;;;;;;;7.88;4.90;;;;;;;;;;5047580;28;21931;-78
2021/06/29 11:38:40;;;;;;;6.47;4.43;;;;;;;;;;5050703;28;20035;-78
2021/06/29 11:41:25;;;;;;;7.05;4.53;;;;;;;;;;5039792;28;20111;-79
2021/06/29 11:44:09;;;;;;;7.53;5.00;;;;;;;;;;5061783;28;20085;-77
2021/06/29 11:47:06;;;;;;;5.85;4.30;;;;;;;;;;5063324;28;20466;-79
2021/06/29 11:49:58;;;;;;;5.47;4.90;;;;;;;;;;5072138;28;20047;-78
2021/06/29 11:52:43;;;;;;;5.65;4.50;;;;;;;;;;5059268;28;20545;-78
2021/06/29 11:55:29;;;;;;;6.32;4.65;;;;;;;;;;5070191;28;20119;-79
2021/06/29 11:58:13;;;;;;;6.25;4.55;;;;;;;;;;5050702;28;20043;-79
2021/06/29 12:00:58;;;;;;;6.93;4.80;;;;;;;;;;5062258;28;20120;-79
2021/06/29 12:03:45;;;;;;;7.57;4.90;;;;;;;;;;5041656;28;20071;-79
2021/06/29 12:06:30;;;;;;;6.07;4.97;;;;;;;;;;5064326;28;20097;-78
2021/06/29 12:09:14;;;;;;;7.03;4.85;;;;;;;;;;5044711;28;20064;-79
2021/06/29 12:12:18;;;;;;;8.95;5.28;;;;;;;;;;5047762;28;20121;-79
2021/06/29 12:15:12;;;;;;;6.18;4.93;;;;;;;;;;5065581;28;20711;-78
2021/06/29 12:18:01;;;;;;;6.75;4.68;;;;;;;;;;5074113;28;20510;-79
2021/06/29 12:20:50;;;;;;;8.70;5.00;;;;;;;;;;5054956;28;20465;-80
2021/06/29 12:23:35;;;;;;;6.00;4.50;;;;;;;;;;5061071;28;20107;-78
2021/06/29 12:26:20;;;;;;;7.82;5.03;;;;;;;;;;5049077;28;20059;-79
2021/06/29 12:29:05;;;;;;;7.90;4.97;;;;;;;;;;5046956;28;20044;-79
2021/06/29 12:31:50;;;;;;;6.63;5.18;;;;;;;;;;5063939;28;20315;-78
2021/06/29 12:34:34;;;;;;;6.15;5.28;;;;;;;;;;5057565;28;20518;-78
2021/06/29 12:37:19;;;;;;;5.30;4.80;;;;;;;;;;5049643;28;20048;-78
2021/06/29 12:40:05;;;;;;;5.50;4.43;;;;;;;;;;5049692;28;20509;-78
2021/06/29 12:42:50;;;;;;;6.20;5.03;;;;;;;;;;5048967;28;20178;-79
2021/06/29 12:45:35;;;;;;;6.10;4.60;;;;;;;;;;5049330;28;20632;-79
2021/06/29 12:48:20;;;;;;;7.50;4.93;;;;;;;;;;5064894;28;20601;-79
2021/06/29 12:51:05;;;;;;;8.52;4.90;;;;;;;;;;5064622;28;20048;-78
2021/06/29 12:53:54;;;;;;;5.80;4.78;;;;;;;;;;5051244;28;20104;-79
2021/06/29 12:56:43;;;;;;;7.47;4.88;;;;;;;;;;5065233;28;20078;-79
2021/06/29 12:59:31;;;;;;;5.93;4.80;;;;;;;;;;5065388;28;20042;-79
2021/06/29 13:02:19;;;;;;;5.32;4.80;;;;;;;;;;5047927;28;20062;-79
2021/06/29 13:05:10;;;;;;;5.78;4.78;;;;;;;;;;5041195;28;20043;-79
2021/06/29 13:07:55;;;;;;;5.10;4.40;;;;;;;;;;5064567;28;20069;-79
2021/06/29 13:10:40;;;;;;;5.78;5.20;;;;;;;;;;5043722;28;20083;-79
2021/06/29 13:13:25;;;;;;;5.80;4.60;;;;;;;;;;5064252;28;20170;-78
2021/06/29 13:16:19;;;;;;;7.35;4.70;;;;;;;;;;5044250;28;20092;-79
2021/06/29 13:19:05;;;;;;;5.53;4.80;;;;;;;;;;5063677;28;20544;-79
2021/06/29 13:21:57;;;;;;;5.50;4.80;;;;;;;;;;5053232;28;20074;-78
2021/06/29 13:24:50;;;;;;;5.72;4.63;;;;;;;;;;5052382;28;20044;-78
2021/06/29 13:27:35;;;;;;;6.72;4.85;;;;;;;;;;5062533;28;21370;-79
2021/06/29 13:30:20;;;;;;;5.65;4.63;;;;;;;;;;5043248;28;20140;-79
2021/06/29 13:33:04;;;;;;;6.55;4.55;;;;;;;;;;5048468;28;20046;-78
2021/06/29 13:35:53;;;;;;;5.57;4.70;;;;;;;;;;5045659;28;20599;-79
2021/06/29 13:38:38;;;;;;;6.88;4.90;;;;;;;;;;5062819;28;20113;-78
2021/06/29 13:41:36;;;;;;;8.07;4.85;;;;;;;;;;5063072;28;20105;-78
2021/06/29 13:44:21;;;;;;;5.38;4.88;;;;;;;;;;5061434;28;20395;-79
2021/06/29 13:47:07;;;;;;;6.50;4.75;;;;;;;;;;5048773;28;20446;-79
2021/06/29 13:49:58;;;;;;;6.93;4.95;;;;;;;;;;5039875;28;20036;-79
2021/06/29 13:52:55;;;;;;;7.07;5.10;;;;;;;;;;5052216;28;20089;-79
2021/06/29 13:55:53;;;;;;;5.68;4.93;;;;;;;;;;5051582;28;20055;-79
2021/06/29 13:58:38;;;;;;;6.45;4.70;;;;;;;;;;5052727;28;20211;-79
2021/06/29 14:01:23;;;;;;;6.43;4.95;;;;;;;;;;5061167;28;20103;-78
2021/06/29 14:04:09;;;;;;;5.70;4.50;;;;;;;;;;5062401;28;20106;-78
2021/06/29 14:07:06;;;;;;;6.78;5.07;;;;;;;;;;5062032;28;20109;-79
2021/06/29 14:09:53;;;;;;;5.97;4.70;;;;;;;;;;5058375;28;20406;-78
2021/06/29 14:12:37;;;;;;;5.20;4.70;;;;;;;;;;5063687;28;20682;-78
2021/06/29 14:15:22;;;;;;;5.65;4.75;;;;;;;;;;5072406;28;20505;-79
2021/06/29 14:18:08;;;;;;;5.13;4.63;;;;;;;;;;5068391;28;20078;-79
2021/06/29 14:20:53;;;;;;;6.70;4.70;;;;;;;;;;5062616;28;20127;-79
2021/06/29 14:23:38;;;;;;;6.40;4.70;;;;;;;;;;5047546;28;20048;-79
2021/06/29 14:26:23;;;;;;;6.90;5.15;;;;;;;;;;5045831;28;20936;-79
2021/06/29 14:29:08;;;;;;;4.95;4.45;;;;;;;;;;5061993;28;20035;-79
2021/06/29 14:31:52;;;;;;;6.55;5.10;;;;;;;;;;5048399;28;20050;-79
2021/06/29 14:34:36;;;;;;;5.45;4.93;;;;;;;;;;5047509;28;20114;-80
2021/06/29 14:37:21;;;;;;;5.70;4.47;;;;;;;;;;5062513;28;20039;-79
2021/06/29 14:40:06;;;;;;;6.18;4.97;;;;;;;;;;5060757;28;20170;-79
2021/06/29 14:42:51;;;;;;;5.75;5.10;;;;;;;;;;5056266;28;20615;-79
2021/06/29 14:45:36;;;;;;;6.72;5.20;;;;;;;;;;5047820;28;20040;-79
2021/06/29 14:48:21;;;;;;;5.45;4.75;;;;;;;;;;5062075;28;20111;-79
2021/06/29 14:51:06;;;;;;;5.38;4.88;;;;;;;;;;5063781;28;20044;-79
2021/06/29 14:53:50;;;;;;;6.40;4.68;;;;;;;;;;5061578;28;20174;-79
2021/06/29 14:56:35;;;;;;;5.55;4.50;;;;;;;;;;5060912;28;20047;-79
2021/06/29 14:59:20;;;;;;;6.10;4.97;;;;;;;;;;5061841;28;20441;-79
2021/06/29 15:02:04;;;;;;;5.30;4.65;;;;;;;;;;5046539;28;20062;-78
2021/06/29 15:04:51;;;;;;;5.07;4.38;;;;;;;;;;5061629;28;20051;-80
2021/06/29 15:07:36;;;;;;;5.25;4.40;;;;;;;;;;5042238;28;20043;-79
2021/06/29 15:10:21;;;;;;;6.45;4.68;;;;;;;;;;5057383;28;20597;-78
2021/06/29 15:13:07;;;;;;;5.25;4.75;;;;;;;;;;5060988;28;20043;-79
2021/06/29 15:15:51;;;;;;;5.90;4.68;;;;;;;;;;5060069;28;20170;-79
2021/06/29 15:18:36;;;;;;;6.75;4.70;;;;;;;;;;5060464;28;20468;-79
2021/06/29 15:21:21;;;;;;;5.85;4.60;;;;;;;;;;5041818;28;20503;-80
2021/06/29 15:24:06;;;;;;;5.20;4.70;;;;;;;;;;5045293;28;20044;-79
2021/06/29 15:26:51;;;;;;;6.13;4.43;;;;;;;;;;5063945;28;20426;-79
2021/06/29 15:29:35;;;;;;;6.20;4.82;;;;;;;;;;5063279;28;20225;-79
2021/06/29 15:32:22;;;;;;;5.00;4.32;;;;;;;;;;5065677;28;20070;-79
2021/06/29 15:35:09;;;;;;;6.40;5.05;;;;;;;;;;5064529;28;20050;-79
2021/06/29 15:37:54;;;;;;;5.68;4.82;;;;;;;;;;5063879;28;20058;-79
2021/06/29 15:40:40;;;;;;;6.30;4.90;;;;;;;;;;5064795;28;20170;-79
2021/06/29 15:43:24;;;;;;;5.05;4.57;;;;;;;;;;5050586;28;20043;-79
2021/06/29 15:46:09;;;;;;;6.70;4.28;;;;;;;;;;5064906;28;20136;-79
2021/06/29 15:48:54;;;;;;;5.28;4.45;;;;;;;;;;5055436;28;20086;-80
2021/06/29 15:51:39;;;;;;;6.00;4.53;;;;;;;;;;5066308;28;20047;-80
2021/06/29 15:54:23;;;;;;;5.10;4.30;;;;;;;;;;5052429;28;20776;-80
2021/06/29 15:57:07;;;;;;;5.28;4.50;;;;;;;;;;5064792;28;20051;-80
2021/06/29 15:59:53;;;;;;;5.30;4.80;;;;;;;;;;5063691;28;20079;-81
2021/06/29 16:02:38;;;;;;;5.63;4.90;;;;;;;;;;5070106;28;20518;-77
2021/06/29 16:05:22;;;;;;;6.45;4.63;;;;;;;;;;5044227;28;20159;-78
2021/06/29 16:08:09;;;;;;;6.85;4.93;;;;;;;;;;5062862;28;20039;-79
2021/06/29 16:10:53;;;;;;;5.18;4.38;;;;;;;;;;5045387;28;20043;-76
2021/06/29 16:13:38;;;;;;;5.13;4.57;;;;;;;;;;5039478;28;20510;-76
2021/06/29 16:16:22;;;;;;;5.55;4.57;;;;;;;;;;5055993;28;20087;-77
2021/06/29 16:19:08;;;;;;;5.20;4.70;;;;;;;;;;5063990;28;20180;-76
2021/06/29 16:21:53;;;;;;;5.45;4.60;;;;;;;;;;5044264;28;20051;-77
2021/06/29 16:24:37;;;;;;;5.32;4.57;;;;;;;;;;5050564;28;20071;-76
2021/06/29 16:27:22;;;;;;;6.10;4.55;;;;;;;;;;5050354;28;20035;-77
2021/06/29 16:30:07;;;;;;;5.28;4.78;;;;;;;;;;5064395;28;20133;-77
2021/06/29 16:32:51;;;;;;;6.20;5.00;;;;;;;;;;5064000;28;20664;-76
2021/06/29 16:35:36;;;;;;;5.63;4.70;;;;;;;;;;5048102;28;20206;-76
2021/06/29 16:38:20;;;;;;;5.13;4.50;;;;;;;;;;5050387;28;20406;-77
2021/06/29 16:41:05;;;;;;;5.45;4.70;;;;;;;;;;5044261;28;20557;-77
2021/06/29 16:43:50;;;;;;;5.43;4.70;;;;;;;;;;5062860;28;20494;-77